createdAt,value
2019-06-26T00:01:31.505Z,6.42
2019-06-26T00:04:03.811Z,6.65
2019-06-26T00:06:51.143Z,6.35
2019-06-26T00:09:55.460Z,6.65
2019-06-26T00:12:40.149Z,6.72
2019-06-26T00:15:11.684Z,6.87
2019-06-26T00:17:40.585Z,6.87
2019-06-26T00:20:09.789Z,7.05
2019-06-26T00:22:44.777Z,7.70
2019-06-26T00:25:14.797Z,6.95
2019-06-26T00:27:44.924Z,7.58
2019-06-26T00:30:15.666Z,6.87
2019-06-26T00:32:45.798Z,7.10
2019-06-26T00:35:15.615Z,7.62
2019-06-26T00:37:45.731Z,7.60
2019-06-26T00:40:15.369Z,8.18
2019-06-26T00:42:47.315Z,7.35
2019-06-26T00:45:16.373Z,6.85
2019-06-26T00:47:45.211Z,7.10
2019-06-26T00:50:15.437Z,7.33
2019-06-26T00:52:44.168Z,6.53
2019-06-26T00:55:16.400Z,7.33
2019-06-26T00:57:45.187Z,6.95
2019-06-26T01:00:14.609Z,7.15
2019-06-26T01:02:43.580Z,7.05
2019-06-26T01:05:13.553Z,7.28
2019-06-26T01:07:42.505Z,7.60
2019-06-26T01:10:13.319Z,7.37
2019-06-26T01:12:42.143Z,7.40
2019-06-26T01:15:12.885Z,6.95
2019-06-26T01:17:41.700Z,7.20
2019-06-26T01:20:12.160Z,6.75
2019-06-26T01:22:43.541Z,7.72
2019-06-26T01:25:16.905Z,8.03
2019-06-26T01:27:45.939Z,7.42
2019-06-26T01:30:16.260Z,7.87
2019-06-26T01:32:45.087Z,7.45
2019-06-26T01:35:15.570Z,8.10
2019-06-26T01:37:47.995Z,7.25
2019-06-26T01:40:21.279Z,8.13
2019-06-26T01:42:52.480Z,7.42
2019-06-26T01:45:26.258Z,7.15
2019-06-26T01:48:09.545Z,7.05
2019-06-26T01:50:35.619Z,7.03
2019-06-26T01:53:25.798Z,7.80
2019-06-26T01:55:43.365Z,7.25
2019-06-26T01:58:19.095Z,7.17
2019-06-26T02:03:45.716Z,7.72
2019-06-26T02:06:03.628Z,8.08
2019-06-26T02:08:32.784Z,8.18
2019-06-26T02:11:05.316Z,8.00
2019-06-26T02:13:42.138Z,8.60
2019-06-26T02:16:11.546Z,7.67
2019-06-26T02:18:47.866Z,7.80
2019-06-26T02:21:21.191Z,8.73
2019-06-26T02:23:52.822Z,8.88
2019-06-26T02:26:27.919Z,8.65
2019-06-26T02:28:56.848Z,9.03
2019-06-26T02:31:25.680Z,8.45
2019-06-26T02:33:57.338Z,9.13
2019-06-26T02:36:26.287Z,7.83
2019-06-26T02:38:55.264Z,8.33
2019-06-26T02:41:24.116Z,8.78
2019-06-26T02:43:59.364Z,8.28
2019-06-26T02:46:28.050Z,8.15
2019-06-26T02:48:56.937Z,9.10
2019-06-26T02:51:25.843Z,9.05
2019-06-26T02:53:54.704Z,8.70
2019-06-26T02:56:23.571Z,8.38
2019-06-26T02:58:52.467Z,8.98
2019-06-26T03:01:22.979Z,8.80
2019-06-26T03:03:51.847Z,9.15
2019-06-26T03:06:20.935Z,9.00
2019-06-26T03:08:49.998Z,8.93
2019-06-26T03:11:18.787Z,9.75
2019-06-26T03:13:47.610Z,9.20
2019-06-26T03:16:16.582Z,8.95
2019-06-26T03:18:45.461Z,10.32
2019-06-26T03:21:16.300Z,10.15
2019-06-26T03:23:49.980Z,10.28
2019-06-26T03:26:33.862Z,9.10
2019-06-26T03:28:57.101Z,9.40
2019-06-26T03:31:27.862Z,10.32
2019-06-26T03:34:26.120Z,9.75
2019-06-26T03:36:46.164Z,8.93
2019-06-26T03:39:14.879Z,9.38
2019-06-26T03:41:43.735Z,9.58
2019-06-26T03:44:14.675Z,9.18
2019-06-26T03:46:43.116Z,9.68
2019-06-26T03:49:11.806Z,9.60
2019-06-26T03:51:40.702Z,9.93
2019-06-26T03:54:09.678Z,9.25
2019-06-26T03:57:05.678Z,9.70
2019-06-26T03:59:31.788Z,9.03
2019-06-26T04:02:00.673Z,10.00
2019-06-26T04:04:29.570Z,9.63
2019-06-26T04:06:58.375Z,9.80
2019-06-26T04:09:27.153Z,10.45
2019-06-26T04:11:58.375Z,10.53
2019-06-26T04:14:27.199Z,10.00
2019-06-26T04:16:56.156Z,9.43
2019-06-26T04:19:24.975Z,10.32
2019-06-26T04:21:53.861Z,10.43
2019-06-26T04:24:22.755Z,9.38
2019-06-26T04:26:52.565Z,8.78
2019-06-26T04:29:21.362Z,8.98
2019-06-26T04:31:50.112Z,9.00
2019-06-26T04:34:18.926Z,9.28
2019-06-26T04:36:47.669Z,8.55
2019-06-26T04:39:16.440Z,8.50
2019-06-26T04:41:45.267Z,8.35
2019-06-26T04:44:14.089Z,8.48
2019-06-26T04:46:43.130Z,8.03
2019-06-26T04:49:12.059Z,7.65
2019-06-26T04:51:40.937Z,8.30
2019-06-26T04:54:09.739Z,8.35
2019-06-26T04:56:40.084Z,8.25
2019-06-26T04:59:08.813Z,8.05
2019-06-26T05:01:37.647Z,7.72
2019-06-26T05:04:06.399Z,8.83
2019-06-26T05:06:41.738Z,8.13
2019-06-26T05:09:10.515Z,8.45
2019-06-26T05:11:40.358Z,8.08
2019-06-26T05:14:09.261Z,8.50
2019-06-26T05:16:38.005Z,8.70
2019-06-26T05:19:06.719Z,8.55
2019-06-26T05:21:35.594Z,8.05
2019-06-26T05:24:04.377Z,8.75
2019-06-26T05:26:33.221Z,8.78
2019-06-26T05:29:02.188Z,9.28
2019-06-26T05:31:31.043Z,8.95
2019-06-26T05:33:59.818Z,8.73
2019-06-26T05:36:28.875Z,9.25
2019-06-26T05:38:57.619Z,9.10
2019-06-26T05:41:26.547Z,9.38
2019-06-26T05:43:55.447Z,9.63
2019-06-26T05:46:31.141Z,9.25
2019-06-26T05:48:54.766Z,9.35
2019-06-26T05:51:23.639Z,9.30
2019-06-26T05:53:52.443Z,9.73
2019-06-26T05:56:21.390Z,9.20
2019-06-26T05:58:50.181Z,9.85
2019-06-26T06:01:19.086Z,10.40
2019-06-26T06:03:48.314Z,10.68
2019-06-26T06:06:17.990Z,11.22
2019-06-26T06:08:47.192Z,11.22
2019-06-26T06:11:16.111Z,11.75
2019-06-26T06:13:47.234Z,11.88
2019-06-26T06:16:16.250Z,11.57
2019-06-26T06:18:45.412Z,11.57
2019-06-26T06:21:14.427Z,12.03
2019-06-26T06:23:44.974Z,12.90
2019-06-26T06:26:13.887Z,12.45
2019-06-26T06:28:42.804Z,13.05
2019-06-26T06:31:11.818Z,12.00
2019-06-26T06:33:40.630Z,12.05
2019-06-26T06:36:09.887Z,12.03
2019-06-26T06:38:44.499Z,11.45
2019-06-26T06:41:13.656Z,12.28
2019-06-26T06:43:42.553Z,13.22
2019-06-26T06:46:12.646Z,12.93
2019-06-26T06:48:41.844Z,12.93
2019-06-26T06:51:10.859Z,12.05
2019-06-26T06:53:40.380Z,11.68
2019-06-26T06:56:10.561Z,12.53
2019-06-26T06:58:39.439Z,13.62
2019-06-26T07:01:08.434Z,12.25
2019-06-26T07:03:37.637Z,12.85
2019-06-26T07:06:06.518Z,12.30
2019-06-26T07:08:53.691Z,12.88
2019-06-26T07:11:22.574Z,11.80
2019-06-26T07:13:51.736Z,12.68
2019-06-26T07:16:20.587Z,12.18
2019-06-26T07:18:49.237Z,13.22
2019-06-26T07:21:18.029Z,11.90
2019-06-26T07:23:47.315Z,12.63
2019-06-26T07:26:16.637Z,12.68
2019-06-26T07:28:45.567Z,11.83
2019-06-26T07:31:16.944Z,12.82
2019-06-26T07:33:45.783Z,13.08
2019-06-26T07:36:14.894Z,12.50
2019-06-26T07:38:43.698Z,11.25
2019-06-26T07:41:12.696Z,12.93
2019-06-26T07:43:41.749Z,12.45
2019-06-26T07:46:10.649Z,13.10
2019-06-26T07:48:41.183Z,12.78
2019-06-26T07:51:13.520Z,12.60
2019-06-26T07:56:59.778Z,12.82
2019-06-26T08:02:16.891Z,13.18
2019-06-26T08:05:11.903Z,12.80
2019-06-26T08:07:45.382Z,12.10
2019-06-26T08:10:29.123Z,13.25
2019-06-26T08:13:11.272Z,12.82
2019-06-26T08:21:28.224Z,12.95
2019-06-26T08:27:02.117Z,12.65
2019-06-26T08:32:59.194Z,13.18
2019-06-26T08:43:58.393Z,12.70
2019-06-26T08:46:24.618Z,13.93
2019-06-26T08:49:15.150Z,13.93
2019-06-26T08:51:44.848Z,12.90
2019-06-26T08:54:04.580Z,13.50
2019-06-26T08:56:36.239Z,13.50
2019-06-26T08:59:06.822Z,12.63
2019-06-26T09:01:40.543Z,13.85
2019-06-26T09:04:12.457Z,13.32
2019-06-26T09:06:45.128Z,12.82
2019-06-26T09:09:14.036Z,12.37
2019-06-26T09:11:50.240Z,13.35
2019-06-26T09:17:16.276Z,13.38
2019-06-26T09:19:49.737Z,13.55
2019-06-26T09:22:15.593Z,12.68
2019-06-26T09:24:50.478Z,12.50
2019-06-26T09:27:15.331Z,12.75
2019-06-26T09:29:46.198Z,13.68
2019-06-26T09:32:25.871Z,13.28
2019-06-26T09:34:58.077Z,13.35
2019-06-26T09:37:27.035Z,13.03
2019-06-26T09:40:16.102Z,13.40
2019-06-26T09:42:34.272Z,13.90
2019-06-26T09:45:08.672Z,13.50
2019-06-26T09:47:37.625Z,13.43
2019-06-26T09:50:08.096Z,12.15
2019-06-26T09:52:36.943Z,12.80
2019-06-26T09:55:09.070Z,12.15
2019-06-26T09:57:42.269Z,13.38
2019-06-26T10:00:16.331Z,12.40
2019-06-26T10:02:44.864Z,11.75
2019-06-26T10:05:14.276Z,11.20
2019-06-26T10:08:02.649Z,12.20
2019-06-26T10:10:27.646Z,11.75
2019-06-26T10:12:54.884Z,12.37
2019-06-26T10:15:23.892Z,12.23
2019-06-26T10:17:52.688Z,12.55
2019-06-26T10:20:21.702Z,12.05
2019-06-26T10:22:50.492Z,12.85
2019-06-26T10:25:20.817Z,13.00
2019-06-26T10:27:49.619Z,12.50
2019-06-26T10:30:19.369Z,13.03
2019-06-26T10:32:51.336Z,13.40
2019-06-26T10:35:19.504Z,13.68
2019-06-26T10:37:48.243Z,13.38
2019-06-26T10:40:27.679Z,12.43
2019-06-26T10:43:06.960Z,13.32
2019-06-26T10:45:36.376Z,13.28
2019-06-26T10:48:05.907Z,12.25
2019-06-26T10:50:47.571Z,13.45
2019-06-26T10:53:05.311Z,13.18
2019-06-26T10:55:34.107Z,13.08
2019-06-26T10:58:03.167Z,13.38
2019-06-26T11:00:32.189Z,13.03
2019-06-26T11:03:01.089Z,13.25
2019-06-26T11:05:29.839Z,13.48
2019-06-26T11:08:00.683Z,13.13
2019-06-26T11:10:29.534Z,13.40
2019-06-26T11:12:58.308Z,13.43
2019-06-26T11:15:28.572Z,13.00
2019-06-26T11:17:57.461Z,13.55
2019-06-26T11:20:50.615Z,13.40
2019-06-26T11:23:00.880Z,13.62
2019-06-26T11:25:30.920Z,14.00
2019-06-26T11:28:01.523Z,13.32
2019-06-26T11:30:30.369Z,13.18
2019-06-26T11:32:59.383Z,14.05
2019-06-26T11:35:32.164Z,13.15
2019-06-26T11:38:02.110Z,13.40
2019-06-26T11:40:30.963Z,13.10
2019-06-26T11:42:59.891Z,13.20
2019-06-26T11:45:28.953Z,13.32
2019-06-26T11:48:01.987Z,14.23
2019-06-26T11:50:32.471Z,14.03
2019-06-26T11:53:01.533Z,13.90
2019-06-26T11:55:30.519Z,12.70
2019-06-26T11:57:59.346Z,13.45
2019-06-26T12:00:28.397Z,13.28
2019-06-26T12:02:57.685Z,11.40
2019-06-26T12:05:31.349Z,12.50
2019-06-26T12:08:00.244Z,12.35
2019-06-26T12:10:30.805Z,12.07
2019-06-26T12:12:59.711Z,11.33
2019-06-26T12:15:28.589Z,12.05
2019-06-26T12:17:58.991Z,11.90
2019-06-26T12:20:30.149Z,11.25
2019-06-26T12:23:04.409Z,12.10
2019-06-26T12:25:42.467Z,12.05
2019-06-26T12:28:13.017Z,12.63
2019-06-26T12:30:41.968Z,12.53
2019-06-26T12:33:12.402Z,13.05
2019-06-26T12:35:42.766Z,11.40
2019-06-26T12:38:15.220Z,12.28
2019-06-26T12:41:03.277Z,12.47
2019-06-26T12:43:39.606Z,12.40
2019-06-26T12:49:02.802Z,11.93
2019-06-26T12:51:35.616Z,13.20
2019-06-26T12:54:03.643Z,12.00
2019-06-26T12:56:34.779Z,12.05
2019-06-26T12:59:05.439Z,12.43
2019-06-26T13:01:35.762Z,12.25
2019-06-26T13:04:04.845Z,11.83
2019-06-26T13:06:59.079Z,11.35
2019-06-26T13:09:20.568Z,11.93
2019-06-26T13:11:58.392Z,12.60
2019-06-26T13:14:30.884Z,12.90
2019-06-26T13:17:01.404Z,12.70
2019-06-26T13:19:30.291Z,10.10
2019-06-26T13:22:02.912Z,10.78
2019-06-26T13:24:34.313Z,11.03
2019-06-26T13:27:14.223Z,10.70
2019-06-26T13:29:43.570Z,9.58
2019-06-26T13:32:12.423Z,8.85
2019-06-26T13:34:41.347Z,7.65
2019-06-26T13:37:10.287Z,7.28
2019-06-26T13:39:39.208Z,8.23
2019-06-26T13:42:33.864Z,7.83
2019-06-26T13:45:15.821Z,7.83
2019-06-26T13:47:59.893Z,8.00
2019-06-26T13:50:27.348Z,7.58
2019-06-26T13:53:00.629Z,7.70
2019-06-26T13:58:24.082Z,7.58
2019-06-26T14:00:56.372Z,7.80
2019-06-26T14:03:29.345Z,7.22
2019-06-26T14:06:01.996Z,7.60
2019-06-26T14:08:37.068Z,7.85
2019-06-26T14:11:01.673Z,7.42
2019-06-26T14:13:30.598Z,7.37
2019-06-26T14:16:02.267Z,7.08
2019-06-26T14:18:34.081Z,7.83
2019-06-26T14:21:03.057Z,8.33
2019-06-26T14:23:43.812Z,8.63
2019-06-26T14:26:09.980Z,8.15
2019-06-26T14:28:38.978Z,8.53
2019-06-26T14:31:16.407Z,8.50
2019-06-26T14:33:46.828Z,7.85
2019-06-26T14:36:23.473Z,8.05
2019-06-26T14:38:52.958Z,8.08
2019-06-26T14:41:23.493Z,7.28
2019-06-26T14:43:52.395Z,7.83
2019-06-26T14:46:25.087Z,7.78
2019-06-26T14:55:34.348Z,7.97
2019-06-26T14:58:25.327Z,8.13
2019-06-26T15:02:09.593Z,7.80
2019-06-26T15:04:31.598Z,8.28
2019-06-26T15:09:39.892Z,8.13
2019-06-26T15:12:48.274Z,7.50
2019-06-26T15:15:54.846Z,7.42
2019-06-26T15:19:01.905Z,8.40
2019-06-26T15:21:57.496Z,8.60
2019-06-26T15:27:55.437Z,8.30
2019-06-26T15:33:49.285Z,8.75
2019-06-26T15:36:43.276Z,8.78
2019-06-26T15:39:23.347Z,8.80
2019-06-26T15:42:32.187Z,8.75
2019-06-26T15:45:09.022Z,9.00
2019-06-26T15:48:30.606Z,9.43
2019-06-26T15:57:01.211Z,8.85
2019-06-26T15:59:35.921Z,8.43
2019-06-26T16:02:13.423Z,8.88
2019-06-26T16:04:51.711Z,8.83
2019-06-26T16:07:33.410Z,9.00
2019-06-26T16:10:12.350Z,8.83
2019-06-26T16:12:41.247Z,8.35
2019-06-26T16:15:20.113Z,8.33
2019-06-26T16:18:00.352Z,8.03
2019-06-26T16:20:28.386Z,8.10
2019-06-26T16:23:17.021Z,9.08
2019-06-26T16:26:17.842Z,8.13
2019-06-26T16:28:56.101Z,8.50
2019-06-26T16:32:29.886Z,8.53
2019-06-26T16:34:31.202Z,8.13
2019-06-26T16:36:45.912Z,9.28
2019-06-26T16:39:14.782Z,8.28
2019-06-26T16:41:48.767Z,8.58
2019-06-26T16:44:14.030Z,8.50
2019-06-26T16:46:48.686Z,8.83
2019-06-26T16:49:17.093Z,8.95
2019-06-26T16:51:46.040Z,9.00
2019-06-26T16:54:15.596Z,7.95
2019-06-26T16:56:44.518Z,8.30
2019-06-26T16:59:13.438Z,8.50
2019-06-26T17:01:42.201Z,9.30
2019-06-26T17:04:11.148Z,8.70
2019-06-26T17:06:39.961Z,9.33
2019-06-26T17:09:09.548Z,8.38
2019-06-26T17:11:41.925Z,9.03
2019-06-26T17:14:10.548Z,8.63
2019-06-26T17:16:39.253Z,8.58
2019-06-26T17:19:08.289Z,8.85
2019-06-26T17:21:37.273Z,8.50
2019-06-26T17:24:06.220Z,8.73
2019-06-26T17:26:35.081Z,8.00
2019-06-26T17:29:03.907Z,8.05
2019-06-26T17:31:32.733Z,8.13
2019-06-26T17:34:01.475Z,7.42
2019-06-26T17:36:30.438Z,8.10
2019-06-26T17:38:59.332Z,8.03
2019-06-26T17:41:35.861Z,8.00
2019-06-26T17:46:47.181Z,7.50
2019-06-26T17:47:30.891Z,7.40
2019-06-26T17:49:25.465Z,7.85
2019-06-26T17:51:49.826Z,7.70
2019-06-26T17:54:18.651Z,7.47
2019-06-26T17:56:47.556Z,7.97
2019-06-26T17:59:16.333Z,7.92
2019-06-26T18:05:09.535Z,7.65
2019-06-26T18:07:38.511Z,6.90
2019-06-26T18:13:00.152Z,7.92
2019-06-26T18:15:29.143Z,7.75
2019-06-26T18:17:58.003Z,7.33
2019-06-26T18:21:19.659Z,7.37
2019-06-26T18:23:07.457Z,7.50
2019-06-26T18:25:34.138Z,7.62
2019-06-26T18:28:05.732Z,7.58
2019-06-26T18:30:34.700Z,7.60
2019-06-26T18:33:03.656Z,7.65
2019-06-26T18:35:34.019Z,7.55
2019-06-26T18:38:02.877Z,7.80
2019-06-26T18:40:31.758Z,7.90
2019-06-26T18:43:03.610Z,8.60
2019-06-26T18:45:35.069Z,7.83
2019-06-26T18:48:04.736Z,7.83
2019-06-26T18:50:33.674Z,8.08
2019-06-26T18:53:02.503Z,8.10
2019-06-26T18:55:32.453Z,8.80
2019-06-26T18:58:02.609Z,8.70
2019-06-26T19:00:32.756Z,8.55
2019-06-26T19:06:51.425Z,8.38
2019-06-26T19:13:28.874Z,8.65
2019-06-26T19:50:02.677Z,9.45
2019-06-26T19:59:08.054Z,9.45
2019-06-26T20:02:07.449Z,9.68
2019-06-26T20:11:12.108Z,9.68
2019-06-26T20:13:52.128Z,9.18
2019-06-26T20:19:25.698Z,9.10
2019-06-26T20:29:12.023Z,9.43
2019-06-26T20:32:10.666Z,10.20
2019-06-26T21:00:33.887Z,9.53
2019-06-26T21:27:57.342Z,9.95
2019-06-26T21:51:05.727Z,11.20
2019-06-26T22:21:17.496Z,11.38
2019-06-26T22:43:05.627Z,11.78
2019-06-26T22:45:34.469Z,11.93
2019-06-26T22:48:05.234Z,11.15
2019-06-26T22:50:38.474Z,12.07
2019-06-26T22:56:47.344Z,12.65
2019-06-26T23:12:12.000Z,12.75
